Time;durP1;ratioP1;P1;durP2;ratioP2;P2;SDS_P1;SDS_P2;PMS_P1;PMS_P2;Temp;Humidity;BMP_temperature;BMP_pressure;BME280_temperature;BME280_humidity;BME280_pressure;Samples;Min_cycle;Max_cycle;Signal;HPM_P1;HPM_P2
2021/05/02 00:00:16;;;;;;;24.83;17.07;;;;;;;;;;5038796;28;20538;-71
2021/05/02 00:02:44;;;;;;;21.63;15.73;;;;;;;;;;5039965;28;20470;-72
2021/05/02 00:05:15;;;;;;;24.67;17.27;;;;;;;;;;5037854;28;20439;-71
2021/05/02 00:07:43;;;;;;;24.73;17.67;;;;;;;;;;5038239;28;20875;-72
2021/05/02 00:10:11;;;;;;;23.57;17.47;;;;;;;;;;5038357;28;20466;-72
2021/05/02 00:12:40;;;;;;;28.63;18.20;;;;;;;;;;5039232;28;20455;-71
2021/05/02 00:15:09;;;;;;;25.17;16.90;;;;;;;;;;5038146;28;20609;-71
2021/05/02 00:17:37;;;;;;;26.60;18.07;;;;;;;;;;5037699;28;20517;-71
2021/05/02 00:20:05;;;;;;;28.60;17.50;;;;;;;;;;5038071;28;20483;-71
2021/05/02 00:22:34;;;;;;;23.67;16.07;;;;;;;;;;5038126;28;20545;-71
2021/05/02 00:25:01;;;;;;;23.23;17.23;;;;;;;;;;5038044;28;20446;-72
2021/05/02 00:27:29;;;;;;;30.70;20.27;;;;;;;;;;5038340;28;20750;-71
2021/05/02 00:30:00;;;;;;;28.13;17.80;;;;;;;;;;5038180;28;20454;-72
2021/05/02 00:32:31;;;;;;;32.37;21.77;;;;;;;;;;5037819;28;20938;-71
2021/05/02 00:34:59;;;;;;;34.90;23.50;;;;;;;;;;5037564;28;20493;-72
2021/05/02 00:37:35;;;;;;;30.50;19.63;;;;;;;;;;5038154;28;20451;-72
2021/05/02 00:40:24;;;;;;;34.93;23.43;;;;;;;;;;5037528;28;20443;-72
2021/05/02 00:42:52;;;;;;;39.50;23.63;;;;;;;;;;5031828;28;20455;-71
2021/05/02 00:45:28;;;;;;;36.13;25.00;;;;;;;;;;5038180;28;20431;-73
2021/05/02 00:48:05;;;;;;;41.10;26.43;;;;;;;;;;5037563;28;20541;-72
2021/05/02 00:50:35;;;;;;;39.47;25.83;;;;;;;;;;5038179;28;20447;-73
2021/05/02 00:53:14;;;;;;;43.63;27.90;;;;;;;;;;5037509;28;20466;-71
2021/05/02 00:55:47;;;;;;;45.80;27.80;;;;;;;;;;5037713;28;20455;-71
2021/05/02 00:58:20;;;;;;;45.23;27.87;;;;;;;;;;5037830;28;20459;-74
2021/05/02 01:00:55;;;;;;;45.43;28.60;;;;;;;;;;5037766;28;20450;-72
2021/05/02 01:03:25;;;;;;;43.37;29.00;;;;;;;;;;5037758;28;20461;-72
2021/05/02 01:05:53;;;;;;;35.97;25.60;;;;;;;;;;5037511;28;20489;-72
2021/05/02 01:08:22;;;;;;;46.27;30.40;;;;;;;;;;5037303;28;20475;-72
2021/05/02 01:10:51;;;;;;;40.47;26.00;;;;;;;;;;5037361;28;20459;-72
2021/05/02 01:13:20;;;;;;;41.93;26.53;;;;;;;;;;5037157;28;20530;-71
2021/05/02 01:15:50;;;;;;;40.00;25.17;;;;;;;;;;5037130;28;20867;-72
2021/05/02 01:18:20;;;;;;;41.23;23.93;;;;;;;;;;5036678;28;20446;-72
2021/05/02 01:20:48;;;;;;;38.13;25.77;;;;;;;;;;5037389;28;20832;-72
2021/05/02 01:23:23;;;;;;;43.30;27.00;;;;;;;;;;5037133;28;20466;-72
2021/05/02 01:25:52;;;;;;;39.93;26.53;;;;;;;;;;5017427;28;20506;-72
2021/05/02 01:28:20;;;;;;;39.30;26.40;;;;;;;;;;5016999;28;20478;-71
2021/05/02 01:30:48;;;;;;;40.90;25.57;;;;;;;;;;5017518;28;20458;-72
2021/05/02 01:33:16;;;;;;;40.97;25.17;;;;;;;;;;5017838;28;20838;-72
2021/05/02 01:35:44;;;;;;;43.80;29.53;;;;;;;;;;5017321;28;20533;-71
2021/05/02 01:38:17;;;;;;;38.50;25.63;;;;;;;;;;5023278;28;20538;-74
2021/05/02 01:40:54;;;;;;;44.80;25.10;;;;;;;;;;5036840;28;20462;-73
2021/05/02 01:43:24;;;;;;;37.90;24.07;;;;;;;;;;5036432;28;20454;-72
2021/05/02 01:45:52;;;;;;;38.83;24.20;;;;;;;;;;5037429;28;20530;-72
2021/05/02 01:48:19;;;;;;;42.53;24.17;;;;;;;;;;5037160;28;20470;-72
2021/05/02 01:50:51;;;;;;;45.23;25.30;;;;;;;;;;5037002;28;20537;-72
2021/05/02 01:53:19;;;;;;;45.10;23.83;;;;;;;;;;5036845;28;21109;-71
2021/05/02 01:55:48;;;;;;;39.40;23.73;;;;;;;;;;5036599;28;20463;-71
2021/05/02 01:58:16;;;;;;;40.10;24.27;;;;;;;;;;5036846;28;20742;-73
2021/05/02 02:00:45;;;;;;;36.40;22.60;;;;;;;;;;5036733;28;20553;-71
2021/05/02 02:03:13;;;;;;;44.90;25.03;;;;;;;;;;5036677;28;20549;-72
2021/05/02 02:05:40;;;;;;;41.00;24.50;;;;;;;;;;5037096;28;20462;-72
2021/05/02 02:08:09;;;;;;;35.60;22.33;;;;;;;;;;5036924;28;20469;-72
2021/05/02 02:10:37;;;;;;;39.13;22.00;;;;;;;;;;5036958;28;20459;-72
2021/05/02 02:13:06;;;;;;;38.30;23.90;;;;;;;;;;5036706;28;20878;-72
2021/05/02 02:15:37;;;;;;;31.90;20.60;;;;;;;;;;5035686;28;20446;-72
2021/05/02 02:18:04;;;;;;;35.00;20.87;;;;;;;;;;5036649;28;20819;-72
2021/05/02 02:20:36;;;;;;;37.43;23.00;;;;;;;;;;5035912;28;20470;-72
2021/05/02 02:23:08;;;;;;;34.97;20.73;;;;;;;;;;5036706;28;20455;-72
2021/05/02 02:25:41;;;;;;;32.93;21.40;;;;;;;;;;5036616;28;20490;-72
2021/05/02 02:28:11;;;;;;;33.13;20.00;;;;;;;;;;5036136;28;20870;-71
2021/05/02 02:30:39;;;;;;;36.43;22.20;;;;;;;;;;5036910;28;20713;-71
2021/05/02 02:33:08;;;;;;;34.57;20.60;;;;;;;;;;5036711;28;20454;-71
2021/05/02 02:36:06;;;;;;;36.03;20.93;;;;;;;;;;5036498;28;20459;-72
2021/05/02 02:38:35;;;;;;;34.53;18.80;;;;;;;;;;5036640;28;20902;-71
2021/05/02 02:41:03;;;;;;;32.50;19.90;;;;;;;;;;5036523;28;20467;-71
2021/05/02 02:43:35;;;;;;;35.97;22.10;;;;;;;;;;5036552;28;20797;-71
2021/05/02 02:46:05;;;;;;;35.50;21.27;;;;;;;;;;5036516;28;20733;-72
2021/05/02 02:48:33;;;;;;;34.87;19.40;;;;;;;;;;5036493;28;20687;-71
2021/05/02 02:51:01;;;;;;;32.27;20.00;;;;;;;;;;5035800;28;20520;-72
2021/05/02 02:53:30;;;;;;;34.20;20.13;;;;;;;;;;5036601;28;20489;-72
2021/05/02 02:56:08;;;;;;;35.40;21.50;;;;;;;;;;5036770;28;20451;-71
2021/05/02 02:58:37;;;;;;;33.07;20.87;;;;;;;;;;5036407;28;20554;-72
2021/05/02 03:01:06;;;;;;;34.03;21.03;;;;;;;;;;5036520;28;20879;-71
2021/05/02 03:03:42;;;;;;;28.87;18.63;;;;;;;;;;5036784;28;20549;-71
2021/05/02 03:06:10;;;;;;;29.70;18.10;;;;;;;;;;5040122;28;20477;-71
2021/05/02 03:08:38;;;;;;;27.33;19.60;;;;;;;;;;5039895;28;20548;-71
2021/05/02 03:11:05;;;;;;;33.10;21.27;;;;;;;;;;5039803;28;20549;-71
2021/05/02 03:13:33;;;;;;;32.83;20.30;;;;;;;;;;5039626;28;20926;-71
2021/05/02 03:16:08;;;;;;;35.20;21.63;;;;;;;;;;5039607;28;20449;-72
2021/05/02 03:18:38;;;;;;;32.70;20.33;;;;;;;;;;5040038;28;20461;-72
2021/05/02 03:21:08;;;;;;;33.73;22.20;;;;;;;;;;5039456;28;20531;-72
2021/05/02 03:23:39;;;;;;;32.23;21.60;;;;;;;;;;5038981;28;20489;-72
2021/05/02 03:26:07;;;;;;;33.83;21.40;;;;;;;;;;5039473;28;20459;-72
2021/05/02 03:28:38;;;;;;;36.37;20.90;;;;;;;;;;5039511;28;20814;-72
2021/05/02 03:31:06;;;;;;;32.27;20.73;;;;;;;;;;5039388;28;20451;-72
2021/05/02 03:33:43;;;;;;;38.63;21.97;;;;;;;;;;5039423;28;20556;-71
2021/05/02 03:36:12;;;;;;;35.77;20.40;;;;;;;;;;5039072;28;20516;-72
2021/05/02 03:38:48;;;;;;;29.37;20.37;;;;;;;;;;5039280;28;20463;-71
2021/05/02 03:41:16;;;;;;;32.97;20.33;;;;;;;;;;5039101;28;20486;-71
2021/05/02 03:43:44;;;;;;;38.00;22.07;;;;;;;;;;5039679;28;20716;-72
2021/05/02 03:46:23;;;;;;;32.30;21.40;;;;;;;;;;5040127;28;20933;-72
2021/05/02 03:48:56;;;;;;;39.10;24.50;;;;;;;;;;5039202;28;20454;-72
2021/05/02 03:51:23;;;;;;;39.17;22.93;;;;;;;;;;5039390;28;20481;-71
2021/05/02 03:53:51;;;;;;;36.33;22.80;;;;;;;;;;5039533;28;20510;-71
2021/05/02 03:56:34;;;;;;;38.93;22.73;;;;;;;;;;5038776;28;20462;-71
2021/05/02 03:59:12;;;;;;;38.30;23.97;;;;;;;;;;5038935;28;20545;-71
2021/05/02 04:01:42;;;;;;;39.63;21.10;;;;;;;;;;5038986;28;20473;-72
2021/05/02 04:04:13;;;;;;;35.37;22.70;;;;;;;;;;5039350;28;20443;-73
2021/05/02 04:06:40;;;;;;;40.03;23.13;;;;;;;;;;5038489;28;20862;-72
2021/05/02 04:09:08;;;;;;;42.20;24.37;;;;;;;;;;5018881;28;20495;-72
2021/05/02 04:11:36;;;;;;;35.17;22.80;;;;;;;;;;5018929;28;20455;-72
2021/05/02 04:14:03;;;;;;;34.73;19.00;;;;;;;;;;5018590;28;20703;-72
2021/05/02 04:16:30;;;;;;;32.00;18.30;;;;;;;;;;5021286;28;21037;-72
2021/05/02 04:18:58;;;;;;;36.73;20.87;;;;;;;;;;5038122;28;20835;-72
2021/05/02 04:21:26;;;;;;;38.13;21.37;;;;;;;;;;5038310;28;20852;-71
2021/05/02 04:23:53;;;;;;;37.87;22.30;;;;;;;;;;5038342;28;20447;-71
2021/05/02 04:26:21;;;;;;;33.33;21.00;;;;;;;;;;5038073;28;20462;-71
2021/05/02 04:28:48;;;;;;;39.40;24.73;;;;;;;;;;5038084;28;20467;-71
2021/05/02 04:31:15;;;;;;;30.70;20.43;;;;;;;;;;5038140;28;20575;-72
2021/05/02 04:33:43;;;;;;;38.77;21.00;;;;;;;;;;5037814;28;20498;-72
2021/05/02 04:36:10;;;;;;;36.50;20.33;;;;;;;;;;5038014;28;20478;-72
2021/05/02 04:38:39;;;;;;;28.67;19.93;;;;;;;;;;5037560;28;20474;-72
2021/05/02 04:41:07;;;;;;;32.60;19.73;;;;;;;;;;5037954;28;20879;-72
2021/05/02 04:43:34;;;;;;;27.00;18.83;;;;;;;;;;5037804;28;20553;-72
2021/05/02 04:46:02;;;;;;;31.77;19.73;;;;;;;;;;5037607;28;20483;-71
2021/05/02 04:48:29;;;;;;;35.00;19.77;;;;;;;;;;5038165;28;20549;-71
2021/05/02 04:50:57;;;;;;;31.00;22.73;;;;;;;;;;5037709;28;20538;-71
2021/05/02 04:53:24;;;;;;;37.03;22.50;;;;;;;;;;5037281;28;20470;-71
2021/05/02 04:55:54;;;;;;;33.73;21.50;;;;;;;;;;5038009;28;20886;-71
2021/05/02 04:58:21;;;;;;;33.30;20.50;;;;;;;;;;5037620;28;20532;-72
2021/05/02 05:00:48;;;;;;;30.40;20.53;;;;;;;;;;5037492;28;20542;-71
2021/05/02 05:03:15;;;;;;;36.63;21.93;;;;;;;;;;5037501;28;20479;-71
2021/05/02 05:05:43;;;;;;;38.20;23.37;;;;;;;;;;5037547;28;20553;-71
2021/05/02 05:08:10;;;;;;;34.67;21.07;;;;;;;;;;5036985;28;20863;-71
2021/05/02 05:10:41;;;;;;;29.73;19.70;;;;;;;;;;5036363;28;20459;-71
2021/05/02 05:13:20;;;;;;;32.43;22.33;;;;;;;;;;5036833;28;20455;-71
2021/05/02 05:15:48;;;;;;;35.47;21.77;;;;;;;;;;5037403;28;20521;-71
2021/05/02 05:18:16;;;;;;;33.33;22.00;;;;;;;;;;5036785;28;20516;-71
2021/05/02 05:20:49;;;;;;;37.97;22.20;;;;;;;;;;5037478;28;20553;-71
2021/05/02 05:23:17;;;;;;;37.30;22.70;;;;;;;;;;5037087;28;20861;-71
2021/05/02 05:25:45;;;;;;;37.93;23.40;;;;;;;;;;5036935;28;20473;-71
2021/05/02 05:28:13;;;;;;;40.30;22.60;;;;;;;;;;5036479;28;20451;-71
2021/05/02 05:30:50;;;;;;;39.57;25.97;;;;;;;;;;5017462;28;20467;-71
2021/05/02 05:33:17;;;;;;;35.40;23.07;;;;;;;;;;5017381;28;20872;-71
2021/05/02 05:35:49;;;;;;;35.37;19.47;;;;;;;;;;5027461;28;20573;-70
2021/05/02 05:38:16;;;;;;;36.67;24.07;;;;;;;;;;5037311;28;20534;-72
2021/05/02 05:40:44;;;;;;;33.20;21.27;;;;;;;;;;5037483;28;20458;-71
2021/05/02 05:43:16;;;;;;;32.80;20.47;;;;;;;;;;5037033;28;20463;-72
2021/05/02 05:45:44;;;;;;;34.33;20.40;;;;;;;;;;5036610;28;20482;-71
2021/05/02 05:48:12;;;;;;;31.33;19.90;;;;;;;;;;5037115;28;20451;-71
2021/05/02 05:50:47;;;;;;;34.10;20.77;;;;;;;;;;5036547;28;20517;-72
2021/05/02 05:53:14;;;;;;;29.90;19.87;;;;;;;;;;5036841;28;20827;-71
2021/05/02 05:55:42;;;;;;;30.93;17.50;;;;;;;;;;5035994;28;20577;-72
2021/05/02 05:58:09;;;;;;;30.10;17.97;;;;;;;;;;5036458;28;20572;-71
2021/05/02 06:00:38;;;;;;;34.13;18.87;;;;;;;;;;5036435;28;20498;-72
2021/05/02 06:03:07;;;;;;;33.20;20.70;;;;;;;;;;5036543;28;20505;-71
2021/05/02 06:05:36;;;;;;;30.03;18.00;;;;;;;;;;5036553;28;20447;-70
2021/05/02 06:08:06;;;;;;;32.60;19.87;;;;;;;;;;5037024;28;20521;-71
2021/05/02 06:10:33;;;;;;;23.27;15.40;;;;;;;;;;5036699;28;20461;-70
2021/05/02 06:13:01;;;;;;;27.53;17.10;;;;;;;;;;5036941;28;20557;-70
2021/05/02 06:15:30;;;;;;;28.87;18.50;;;;;;;;;;5037703;28;20514;-71
2021/05/02 06:18:04;;;;;;;31.20;20.40;;;;;;;;;;5037103;28;20473;-72
2021/05/02 06:20:31;;;;;;;25.57;17.00;;;;;;;;;;5036419;28;20454;-70
2021/05/02 06:23:02;;;;;;;24.50;16.30;;;;;;;;;;5037064;28;20726;-71
2021/05/02 06:25:35;;;;;;;21.83;15.67;;;;;;;;;;5036396;28;20875;-70
2021/05/02 06:28:02;;;;;;;23.00;16.23;;;;;;;;;;5037450;28;20459;-70
2021/05/02 06:30:34;;;;;;;22.50;15.67;;;;;;;;;;5036392;28;20447;-70
2021/05/02 06:33:03;;;;;;;24.20;13.60;;;;;;;;;;5036351;28;20625;-71
2021/05/02 06:35:30;;;;;;;24.83;16.23;;;;;;;;;;5036000;28;20569;-70
2021/05/02 06:37:57;;;;;;;23.77;15.20;;;;;;;;;;5030267;28;20610;-71
2021/05/02 06:40:25;;;;;;;23.50;15.80;;;;;;;;;;5031209;28;20879;-72
2021/05/02 06:42:52;;;;;;;26.00;16.17;;;;;;;;;;5040173;28;20467;-70
2021/05/02 06:45:19;;;;;;;24.53;15.40;;;;;;;;;;5040186;28;20479;-71
2021/05/02 06:47:47;;;;;;;22.07;15.37;;;;;;;;;;5039598;28;20463;-70
2021/05/02 06:50:15;;;;;;;20.10;14.10;;;;;;;;;;5039765;28;20750;-70
2021/05/02 06:52:42;;;;;;;23.10;17.53;;;;;;;;;;5039922;28;20462;-70
2021/05/02 06:55:10;;;;;;;23.77;16.10;;;;;;;;;;5039264;28;20613;-71
2021/05/02 06:57:37;;;;;;;23.30;15.67;;;;;;;;;;5039123;28;20537;-70
2021/05/02 07:00:05;;;;;;;23.27;16.20;;;;;;;;;;5039643;28;20464;-72
2021/05/02 07:02:46;;;;;;;23.77;18.13;;;;;;;;;;5039823;28;20455;-71
2021/05/02 07:05:34;;;;;;;19.27;15.47;;;;;;;;;;5040158;28;20473;-72
2021/05/02 07:08:01;;;;;;;24.80;17.03;;;;;;;;;;5040481;28;20461;-70
2021/05/02 07:10:31;;;;;;;31.00;16.93;;;;;;;;;;5039788;28;20466;-70
2021/05/02 07:13:01;;;;;;;25.27;17.53;;;;;;;;;;5039847;28;20554;-72
2021/05/02 07:15:28;;;;;;;22.43;17.37;;;;;;;;;;5039387;28;20490;-70
2021/05/02 07:17:57;;;;;;;24.63;17.27;;;;;;;;;;5039205;28;20451;-70
2021/05/02 07:20:27;;;;;;;24.40;17.83;;;;;;;;;;5039096;28;20463;-70
2021/05/02 07:22:56;;;;;;;22.70;16.50;;;;;;;;;;5038250;28;20728;-71
2021/05/02 07:25:30;;;;;;;22.53;17.13;;;;;;;;;;5038971;28;20474;-70
2021/05/02 07:27:58;;;;;;;21.90;15.80;;;;;;;;;;5038473;28;20446;-70
2021/05/02 07:30:29;;;;;;;19.80;14.40;;;;;;;;;;5039297;28;20466;-70
2021/05/02 07:32:57;;;;;;;20.73;15.53;;;;;;;;;;5038580;28;20458;-71
2021/05/02 07:35:28;;;;;;;20.77;14.30;;;;;;;;;;5038352;28;20502;-69
2021/05/02 07:37:58;;;;;;;20.33;14.30;;;;;;;;;;5038162;28;20451;-71
2021/05/02 07:40:26;;;;;;;18.37;12.90;;;;;;;;;;5038434;28;20557;-71
2021/05/02 07:42:56;;;;;;;20.73;13.80;;;;;;;;;;5037653;28;20637;-71
2021/05/02 07:45:24;;;;;;;19.97;15.30;;;;;;;;;;5038348;28;20462;-71
2021/05/02 07:47:53;;;;;;;19.53;14.93;;;;;;;;;;5038316;28;20450;-71
2021/05/02 07:50:21;;;;;;;19.13;13.80;;;;;;;;;;5038177;28;20459;-71
2021/05/02 07:52:48;;;;;;;21.80;15.27;;;;;;;;;;5038483;28;20487;-71
2021/05/02 07:55:25;;;;;;;21.37;14.30;;;;;;;;;;5037816;28;20482;-71
2021/05/02 07:57:53;;;;;;;15.60;10.90;;;;;;;;;;5038479;28;20461;-70
2021/05/02 08:00:22;;;;;;;20.33;14.27;;;;;;;;;;5038424;28;20459;-70
2021/05/02 08:02:53;;;;;;;19.50;12.83;;;;;;;;;;5038021;28;20459;-71
2021/05/02 08:05:23;;;;;;;18.13;12.97;;;;;;;;;;5038054;28;20451;-71
2021/05/02 08:07:50;;;;;;;23.43;14.10;;;;;;;;;;5038746;28;20447;-71
2021/05/02 08:10:20;;;;;;;19.60;14.47;;;;;;;;;;5027824;28;20470;-71
2021/05/02 08:12:48;;;;;;;18.30;13.57;;;;;;;;;;5037196;28;20458;-70
2021/05/02 08:15:15;;;;;;;19.40;15.03;;;;;;;;;;5038089;28;20541;-70
2021/05/02 08:17:44;;;;;;;23.00;15.07;;;;;;;;;;5037895;28;20552;-70
2021/05/02 08:20:12;;;;;;;15.63;11.50;;;;;;;;;;5034354;28;20467;-72
2021/05/02 08:22:39;;;;;;;12.10;8.33;;;;;;;;;;5036124;28;20457;-71
2021/05/02 08:25:07;;;;;;;14.23;9.20;;;;;;;;;;5037738;28;20871;-71
2021/05/02 08:27:36;;;;;;;12.53;8.97;;;;;;;;;;5037704;28;20508;-70
2021/05/02 08:30:05;;;;;;;17.53;10.97;;;;;;;;;;5037856;28;20466;-70
2021/05/02 08:32:33;;;;;;;12.20;8.27;;;;;;;;;;5037793;28;20462;-70
2021/05/02 08:35:06;;;;;;;12.07;9.80;;;;;;;;;;5037447;28;20491;-72
2021/05/02 08:37:35;;;;;;;13.30;9.17;;;;;;;;;;5037572;28;20783;-71
2021/05/02 08:40:07;;;;;;;11.47;8.33;;;;;;;;;;5037724;28;20455;-69
2021/05/02 08:42:38;;;;;;;12.03;8.90;;;;;;;;;;5036795;28;20450;-69
2021/05/02 08:45:07;;;;;;;14.73;10.60;;;;;;;;;;5037714;28;20459;-72
2021/05/02 08:47:37;;;;;;;11.87;9.30;;;;;;;;;;5038039;28;20612;-71
2021/05/02 08:50:14;;;;;;;11.93;9.93;;;;;;;;;;5037272;28;20733;-72
2021/05/02 08:53:13;;;;;;;10.03;8.23;;;;;;;;;;5038198;28;20480;-70
2021/05/02 09:01:44;;;;;;;11.53;6.77;;;;;;;;;;5035478;28;20458;-70
2021/05/02 09:04:12;;;;;;;8.37;6.57;;;;;;;;;;5037270;28;20725;-71
2021/05/02 09:06:52;;;;;;;6.60;4.83;;;;;;;;;;5036464;28;20470;-73
2021/05/02 09:09:23;;;;;;;6.97;5.27;;;;;;;;;;5034586;28;20466;-71
2021/05/02 09:12:02;;;;;;;7.10;4.53;;;;;;;;;;5021833;28;20889;-70
2021/05/02 09:20:55;;;;;;;9.50;5.70;;;;;;;;;;5036433;28;20434;-72
2021/05/02 09:23:41;;;;;;;6.43;4.30;;;;;;;;;;5035856;28;20474;-71
2021/05/02 09:26:35;;;;;;;5.37;3.90;;;;;;;;;;5017260;28;20833;-71
2021/05/02 09:29:18;;;;;;;7.63;5.67;;;;;;;;;;5031190;28;20435;-71
2021/05/02 09:31:54;;;;;;;6.43;4.50;;;;;;;;;;5036556;28;20466;-71
2021/05/02 09:34:29;;;;;;;5.57;4.40;;;;;;;;;;5036268;28;20587;-70
2021/05/02 09:37:18;;;;;;;6.30;4.80;;;;;;;;;;5034483;28;20458;-73
2021/05/02 09:40:00;;;;;;;6.47;5.30;;;;;;;;;;5035184;28;20541;-71
2021/05/02 09:42:40;;;;;;;9.97;5.57;;;;;;;;;;5034730;28;20463;-71
2021/05/02 09:45:18;;;;;;;8.83;5.30;;;;;;;;;;5035891;28;20771;-71
2021/05/02 09:47:56;;;;;;;6.23;4.80;;;;;;;;;;5035593;28;20493;-71
2021/05/02 09:50:36;;;;;;;6.70;4.23;;;;;;;;;;5032301;28;20726;-70
2021/05/02 09:53:28;;;;;;;4.80;3.57;;;;;;;;;;5035413;28;20531;-71
2021/05/02 09:56:01;;;;;;;5.20;3.50;;;;;;;;;;5035694;28;20490;-70
2021/05/02 09:58:43;;;;;;;5.30;3.63;;;;;;;;;;5034005;28;20882;-70
2021/05/02 10:01:32;;;;;;;5.23;4.07;;;;;;;;;;5036003;28;20530;-71
2021/05/02 10:04:32;;;;;;;5.80;4.00;;;;;;;;;;5035825;28;20459;-71
2021/05/02 10:07:02;;;;;;;7.97;3.90;;;;;;;;;;5032914;28;20505;-70
2021/05/02 10:12:33;;;;;;;4.47;3.30;;;;;;;;;;5033215;28;20459;-73
2021/05/02 10:15:07;;;;;;;4.47;3.03;;;;;;;;;;5040836;28;20490;-71
2021/05/02 10:17:45;;;;;;;7.00;3.57;;;;;;;;;;5042552;28;20912;-70
2021/05/02 10:23:02;;;;;;;4.90;3.30;;;;;;;;;;5036941;28;20939;-72
2021/05/02 10:25:47;;;;;;;4.40;3.33;;;;;;;;;;5042058;28;20461;-70
2021/05/02 10:28:29;;;;;;;3.67;2.90;;;;;;;;;;5041696;28;20443;-71
2021/05/02 10:31:02;;;;;;;5.17;3.70;;;;;;;;;;5042263;28;20446;-71
2021/05/02 10:33:36;;;;;;;7.77;4.60;;;;;;;;;;5041870;28;20549;-70
2021/05/02 10:36:09;;;;;;;8.47;3.90;;;;;;;;;;5040341;28;20481;-70
2021/05/02 10:41:41;;;;;;;6.60;4.57;;;;;;;;;;5004691;28;20508;-70
2021/05/02 10:47:38;;;;;;;5.97;4.17;;;;;;;;;;5040426;28;20444;-70
2021/05/02 10:50:08;;;;;;;5.43;4.37;;;;;;;;;;5040121;28;20464;-70
2021/05/02 10:52:44;;;;;;;7.10;5.33;;;;;;;;;;5040623;28;20451;-71
2021/05/02 10:55:19;;;;;;;8.97;4.90;;;;;;;;;;5040218;28;20485;-71
2021/05/02 10:58:04;;;;;;;7.73;4.90;;;;;;;;;;5040734;28;20473;-69
2021/05/02 11:00:48;;;;;;;12.53;4.67;;;;;;;;;;5032441;28;21002;-70
2021/05/02 11:03:33;;;;;;;8.10;5.57;;;;;;;;;;5030491;28;20466;-71
2021/05/02 11:06:00;;;;;;;6.80;5.20;;;;;;;;;;5028752;28;20666;-71
2021/05/02 11:08:45;;;;;;;6.80;4.07;;;;;;;;;;5030858;28;20467;-70
2021/05/02 11:11:54;;;;;;;6.90;4.73;;;;;;;;;;5024908;28;20773;-69
2021/05/02 11:14:33;;;;;;;13.53;5.80;;;;;;;;;;4960616;28;20633;-70
2021/05/02 11:17:18;;;;;;;5.27;4.43;;;;;;;;;;4960987;29;20458;-70
2021/05/02 11:19:47;;;;;;;5.80;4.30;;;;;;;;;;5017932;28;20443;-70
2021/05/02 11:22:21;;;;;;;6.13;4.17;;;;;;;;;;5027669;28;20451;-72
2021/05/02 11:25:17;;;;;;;6.10;4.53;;;;;;;;;;5018920;28;20828;-71
2021/05/02 11:30:47;;;;;;;6.40;3.57;;;;;;;;;;4979001;28;20572;-72
2021/05/02 11:36:41;;;;;;;6.43;3.73;;;;;;;;;;4961548;28;20744;-70
2021/05/02 11:39:41;;;;;;;7.20;4.23;;;;;;;;;;5019483;28;20952;-70
2021/05/02 11:42:08;;;;;;;6.63;4.00;;;;;;;;;;5018829;28;20533;-69
2021/05/02 11:44:37;;;;;;;8.60;3.83;;;;;;;;;;5023711;28;20442;-71
2021/05/02 11:47:08;;;;;;;4.17;3.13;;;;;;;;;;5038881;28;20463;-71
2021/05/02 11:49:36;;;;;;;5.43;2.70;;;;;;;;;;5037340;28;20442;-71
2021/05/02 11:52:04;;;;;;;5.20;3.30;;;;;;;;;;5037661;28;20655;-71
2021/05/02 11:54:36;;;;;;;8.43;2.77;;;;;;;;;;5037932;28;20482;-71
2021/05/02 11:57:03;;;;;;;4.50;2.30;;;;;;;;;;5038458;28;20552;-71
2021/05/02 11:59:32;;;;;;;3.50;2.60;;;;;;;;;;5039064;28;20714;-70
2021/05/02 12:02:27;;;;;;;4.50;2.60;;;;;;;;;;5037953;28;20462;-70
2021/05/02 12:05:06;;;;;;;7.60;4.40;;;;;;;;;;5039794;28;20447;-71
2021/05/02 12:07:41;;;;;;;6.27;4.00;;;;;;;;;;5039482;28;20454;-71
2021/05/02 12:10:28;;;;;;;5.67;4.03;;;;;;;;;;5037721;28;20557;-70
2021/05/02 12:15:57;;;;;;;4.67;3.93;;;;;;;;;;5038363;28;20475;-72
2021/05/02 12:18:44;;;;;;;7.00;4.33;;;;;;;;;;5038376;28;20459;-71
2021/05/02 12:21:13;;;;;;;6.03;4.37;;;;;;;;;;5037613;28;20451;-71
2021/05/02 12:23:40;;;;;;;5.70;4.30;;;;;;;;;;5037319;28;20719;-70
2021/05/02 12:26:08;;;;;;;6.40;4.70;;;;;;;;;;5036966;28;20518;-69
2021/05/02 12:28:53;;;;;;;8.30;5.00;;;;;;;;;;5036610;28;20465;-70
2021/05/02 12:31:21;;;;;;;6.77;3.60;;;;;;;;;;5036808;28;20447;-71
2021/05/02 12:33:48;;;;;;;4.57;3.70;;;;;;;;;;5036800;28;21092;-71
2021/05/02 12:36:17;;;;;;;6.30;3.43;;;;;;;;;;5023067;28;20486;-71
2021/05/02 12:38:47;;;;;;;5.00;2.90;;;;;;;;;;5036214;28;20547;-71
2021/05/02 12:41:18;;;;;;;7.00;3.53;;;;;;;;;;5036868;28;20487;-71
2021/05/02 12:43:49;;;;;;;5.80;3.77;;;;;;;;;;5036573;28;20446;-71
2021/05/02 12:46:35;;;;;;;4.30;3.67;;;;;;;;;;5036612;28;20482;-70
2021/05/02 12:49:08;;;;;;;3.50;3.17;;;;;;;;;;5036373;28;20455;-70
2021/05/02 12:51:40;;;;;;;6.83;4.50;;;;;;;;;;5036548;28;20462;-70
2021/05/02 12:54:20;;;;;;;9.43;3.80;;;;;;;;;;5035823;28;20467;-70
2021/05/02 12:57:07;;;;;;;6.00;4.13;;;;;;;;;;5036763;28;20435;-70
2021/05/02 12:59:41;;;;;;;6.97;5.80;;;;;;;;;;5037479;28;20871;-71
2021/05/02 13:02:12;;;;;;;5.77;3.80;;;;;;;;;;5036113;28;20866;-71
2021/05/02 13:04:59;;;;;;;5.97;4.00;;;;;;;;;;5037375;28;20542;-70
2021/05/02 13:07:44;;;;;;;7.20;4.23;;;;;;;;;;5036667;28;21185;-71
2021/05/02 13:10:49;;;;;;;4.33;2.93;;;;;;;;;;5037143;28;20450;-71
2021/05/02 13:13:41;;;;;;;5.10;3.53;;;;;;;;;;5037259;28;20494;-71
2021/05/02 13:16:35;;;;;;;4.53;2.37;;;;;;;;;;5036805;28;20523;-71
2021/05/02 13:19:22;;;;;;;4.90;3.10;;;;;;;;;;5001734;28;20474;-71
2021/05/02 13:22:06;;;;;;;4.73;3.40;;;;;;;;;;5037062;28;20451;-70
2021/05/02 13:24:57;;;;;;;9.23;4.60;;;;;;;;;;5038928;28;20871;-71
2021/05/02 13:30:43;;;;;;;5.07;3.27;;;;;;;;;;4980789;28;20429;-70
2021/05/02 13:33:51;;;;;;;5.47;4.20;;;;;;;;;;5038150;28;20466;-71
2021/05/02 13:36:36;;;;;;;5.53;3.43;;;;;;;;;;5019271;28;20501;-71
2021/05/02 13:39:13;;;;;;;4.97;3.90;;;;;;;;;;5033297;28;20650;-71
2021/05/02 13:45:12;;;;;;;4.73;2.63;;;;;;;;;;5033653;28;20447;-72
2021/05/02 13:47:47;;;;;;;5.20;3.30;;;;;;;;;;5006396;28;20466;-71
2021/05/02 13:53:02;;;;;;;9.27;4.03;;;;;;;;;;5031995;28;20961;-70
2021/05/02 13:55:29;;;;;;;4.37;3.37;;;;;;;;;;5035179;28;20537;-70
2021/05/02 13:57:57;;;;;;;6.37;3.57;;;;;;;;;;5035442;28;20463;-70
2021/05/02 14:00:25;;;;;;;7.50;4.37;;;;;;;;;;5035417;28;20905;-70
2021/05/02 14:02:53;;;;;;;7.87;3.50;;;;;;;;;;5018441;28;20573;-70
2021/05/02 14:05:21;;;;;;;5.47;3.43;;;;;;;;;;5034993;28;20777;-70
2021/05/02 14:07:48;;;;;;;6.70;4.17;;;;;;;;;;5036057;28;20485;-71
2021/05/02 14:10:16;;;;;;;4.00;2.87;;;;;;;;;;5034472;28;20737;-71
2021/05/02 14:12:48;;;;;;;4.03;2.50;;;;;;;;;;5035184;28;20470;-70
2021/05/02 14:15:21;;;;;;;4.23;2.70;;;;;;;;;;5034451;28;20553;-70
2021/05/02 14:17:51;;;;;;;3.80;2.70;;;;;;;;;;5035526;28;20520;-69
2021/05/02 14:20:19;;;;;;;3.13;1.90;;;;;;;;;;5035204;28;20447;-69
2021/05/02 14:22:47;;;;;;;3.43;2.00;;;;;;;;;;5036013;28;20941;-70
2021/05/02 14:25:21;;;;;;;3.60;2.40;;;;;;;;;;5036052;28;20455;-72
2021/05/02 14:27:50;;;;;;;3.23;1.80;;;;;;;;;;5037198;28;20454;-70
2021/05/02 14:30:21;;;;;;;2.43;1.33;;;;;;;;;;5036376;28;20596;-70
2021/05/02 14:32:59;;;;;;;2.80;1.80;;;;;;;;;;5035889;28;20750;-71
2021/05/02 14:35:41;;;;;;;2.60;1.90;;;;;;;;;;5014709;28;20487;-71
2021/05/02 14:38:11;;;;;;;3.23;1.73;;;;;;;;;;5024111;28;20529;-71
2021/05/02 14:40:45;;;;;;;3.90;2.20;;;;;;;;;;5034589;28;20455;-70
2021/05/02 14:43:37;;;;;;;2.80;1.83;;;;;;;;;;5034684;28;20484;-71
2021/05/02 14:49:19;;;;;;;2.70;1.67;;;;;;;;;;5035454;28;20443;-71
2021/05/02 14:52:09;;;;;;;3.47;1.60;;;;;;;;;;5016474;28;20764;-70
2021/05/02 14:54:37;;;;;;;6.50;1.83;;;;;;;;;;5023342;28;20450;-70
2021/05/02 14:57:07;;;;;;;3.10;1.97;;;;;;;;;;5035359;28;20461;-70
2021/05/02 14:59:56;;;;;;;5.07;3.00;;;;;;;;;;5027304;28;20479;-72
2021/05/02 15:02:27;;;;;;;3.80;2.30;;;;;;;;;;5026663;28;20557;-69
2021/05/02 15:04:57;;;;;;;3.70;2.33;;;;;;;;;;5038115;28;20522;-72
2021/05/02 15:07:31;;;;;;;4.23;2.50;;;;;;;;;;5039229;28;20489;-70
2021/05/02 15:10:02;;;;;;;6.70;3.17;;;;;;;;;;5038956;28;20792;-72
2021/05/02 15:12:35;;;;;;;4.40;2.80;;;;;;;;;;5039417;28;20886;-71
2021/05/02 15:15:15;;;;;;;4.50;2.67;;;;;;;;;;5038372;28;20509;-71
2021/05/02 15:17:56;;;;;;;4.53;2.23;;;;;;;;;;5039147;28;20517;-71
2021/05/02 15:20:29;;;;;;;7.53;4.23;;;;;;;;;;5039493;28;20886;-71
2021/05/02 15:23:01;;;;;;;3.80;2.13;;;;;;;;;;5024580;28;20450;-71
2021/05/02 15:25:43;;;;;;;4.63;2.43;;;;;;;;;;5037626;28;20443;-71
2021/05/02 15:28:17;;;;;;;3.93;2.70;;;;;;;;;;5037975;28;20454;-70
2021/05/02 15:30:49;;;;;;;4.10;2.53;;;;;;;;;;5038246;28;20703;-71
2021/05/02 15:33:19;;;;;;;4.20;2.37;;;;;;;;;;5037415;28;20883;-73
2021/05/02 15:35:52;;;;;;;6.43;2.27;;;;;;;;;;5038657;28;20930;-71
2021/05/02 15:38:21;;;;;;;6.73;3.17;;;;;;;;;;5039600;28;20467;-71
2021/05/02 15:40:55;;;;;;;5.03;3.57;;;;;;;;;;5039549;28;20515;-72
2021/05/02 15:43:43;;;;;;;4.73;2.57;;;;;;;;;;5020952;28;20458;-70
2021/05/02 15:46:18;;;;;;;4.87;3.50;;;;;;;;;;5020471;28;20792;-70